createdAt,value
2022-09-18T00:01:24.993Z,3.70
2022-09-18T00:03:54.419Z,3.45
2022-09-18T00:06:23.020Z,3.63
2022-09-18T00:08:52.291Z,6.03
2022-09-18T00:11:21.016Z,3.40
2022-09-18T00:13:48.299Z,3.70
2022-09-18T00:16:16.142Z,1.83
2022-09-18T00:18:43.781Z,2.42
2022-09-18T00:21:14.599Z,3.60
2022-09-18T00:23:41.823Z,4.13
2022-09-18T00:26:09.531Z,4.18
2022-09-18T00:28:36.783Z,4.65
2022-09-18T00:31:11.533Z,6.70
2022-09-18T00:33:40.067Z,1.60
2022-09-18T00:36:09.412Z,4.00
2022-09-18T00:38:36.734Z,2.13
2022-09-18T00:41:06.427Z,3.47
2022-09-18T00:43:34.767Z,1.95
2022-09-18T00:46:04.536Z,1.53
2022-09-18T00:48:43.225Z,3.13
2022-09-18T00:51:10.544Z,1.13
2022-09-18T00:53:37.672Z,1.55
2022-09-18T00:56:05.114Z,1.38
2022-09-18T00:58:32.367Z,1.50
2022-09-18T01:01:01.304Z,1.08
2022-09-18T01:03:29.385Z,1.60
2022-09-18T01:06:16.655Z,2.63
2022-09-18T01:09:00.588Z,2.10
2022-09-18T01:11:35.963Z,2.77
2022-09-18T01:14:33.494Z,2.67
2022-09-18T01:17:18.163Z,4.30
2022-09-18T01:20:22.863Z,2.90
2022-09-18T01:23:11.932Z,1.80
2022-09-18T01:26:02.860Z,2.00
2022-09-18T01:28:39.500Z,0.98
2022-09-18T01:31:10.473Z,3.35
2022-09-18T01:33:46.863Z,1.83
2022-09-18T01:36:15.064Z,1.30
2022-09-18T01:38:48.927Z,0.87
2022-09-18T01:41:20.019Z,1.48
2022-09-18T01:43:48.737Z,1.88
2022-09-18T01:46:17.691Z,1.45
2022-09-18T01:48:57.959Z,3.00
2022-09-18T01:51:30.894Z,1.10
2022-09-18T01:54:12.728Z,1.33
2022-09-18T01:56:46.652Z,1.50
2022-09-18T01:59:27.529Z,2.10
2022-09-18T02:02:05.297Z,2.08
2022-09-18T02:04:36.198Z,1.47
2022-09-18T02:07:24.552Z,1.60
2022-09-18T02:09:52.086Z,2.35
2022-09-18T02:12:21.326Z,1.63
2022-09-18T02:14:53.367Z,2.25
2022-09-18T02:17:49.226Z,1.13
2022-09-18T02:20:20.699Z,2.65
2022-09-18T02:22:48.763Z,1.30
2022-09-18T02:25:17.969Z,1.50
2022-09-18T02:27:45.230Z,1.42
2022-09-18T02:30:13.174Z,2.43
2022-09-18T02:32:40.490Z,1.98
2022-09-18T02:35:08.940Z,2.20
2022-09-18T02:37:57.772Z,1.45
2022-09-18T02:40:31.187Z,0.63
2022-09-18T02:43:19.905Z,1.80
2022-09-18T02:46:12.701Z,0.50
2022-09-18T02:48:44.061Z,2.50
2022-09-18T02:51:51.668Z,2.58
2022-09-18T02:54:46.907Z,1.70
2022-09-18T02:57:17.241Z,1.27
2022-09-18T02:59:46.834Z,2.08
2022-09-18T03:02:16.415Z,1.83
2022-09-18T03:04:44.125Z,2.45
2022-09-18T03:07:16.796Z,3.00
2022-09-18T03:09:46.619Z,1.07
2022-09-18T03:12:15.667Z,2.10
2022-09-18T03:14:48.056Z,1.55
2022-09-18T03:17:15.235Z,0.88
2022-09-18T03:19:44.755Z,1.85
2022-09-18T03:22:13.855Z,3.33
2022-09-18T03:24:42.453Z,2.25
2022-09-18T03:27:10.596Z,2.72
2022-09-18T03:29:37.990Z,3.78
2022-09-18T03:32:05.441Z,2.15
2022-09-18T03:34:41.085Z,2.03
2022-09-18T03:37:08.686Z,3.38
2022-09-18T03:39:35.916Z,1.70
2022-09-18T03:42:07.174Z,2.15
2022-09-18T03:44:35.869Z,1.35
2022-09-18T03:47:05.300Z,1.63
2022-09-18T03:49:32.550Z,1.45
2022-09-18T03:51:59.728Z,1.05
2022-09-18T03:54:31.857Z,3.03
2022-09-18T03:57:19.292Z,0.70
2022-09-18T03:59:49.212Z,0.93
2022-09-18T04:02:48.408Z,0.90
2022-09-18T04:05:30.586Z,1.50
2022-09-18T04:08:16.915Z,1.52
2022-09-18T04:11:04.666Z,1.17
2022-09-18T04:13:33.718Z,5.33
2022-09-18T04:16:06.092Z,4.32
2022-09-18T04:18:33.795Z,1.17
2022-09-18T04:21:03.540Z,1.35
2022-09-18T04:23:30.884Z,3.00
2022-09-18T04:25:58.307Z,0.90
2022-09-18T04:28:30.508Z,1.00
2022-09-18T04:30:58.604Z,3.50
2022-09-18T04:33:25.825Z,1.05
2022-09-18T04:35:54.140Z,2.05
2022-09-18T04:38:27.487Z,2.07
2022-09-18T04:40:59.747Z,3.95
2022-09-18T04:43:27.678Z,2.17
2022-09-18T04:45:55.278Z,1.63
2022-09-18T04:48:22.765Z,6.72
2022-09-18T04:50:50.106Z,1.67
2022-09-18T04:53:18.426Z,2.08
2022-09-18T04:55:47.272Z,1.23
2022-09-18T04:58:16.064Z,3.15
2022-09-18T05:00:47.858Z,3.90
2022-09-18T05:03:15.225Z,3.10
2022-09-18T05:05:42.499Z,1.80
2022-09-18T05:08:11.502Z,4.43
2022-09-18T05:10:38.647Z,5.60
2022-09-18T05:13:06.102Z,1.35
2022-09-18T05:15:39.693Z,2.57
2022-09-18T05:18:11.327Z,4.18
2022-09-18T05:20:39.241Z,3.33
2022-09-18T05:23:08.362Z,2.58
2022-09-18T05:25:36.954Z,4.13
2022-09-18T05:28:04.227Z,4.10
2022-09-18T05:30:38.440Z,1.85
2022-09-18T05:33:09.549Z,1.95
2022-09-18T05:35:39.900Z,1.05
2022-09-18T05:38:07.396Z,2.33
2022-09-18T05:40:36.872Z,1.30
2022-09-18T05:43:04.759Z,1.40
2022-09-18T05:45:33.860Z,1.25
2022-09-18T05:48:05.576Z,1.65
2022-09-18T05:50:34.356Z,2.85
2022-09-18T05:53:05.463Z,2.93
2022-09-18T05:55:45.509Z,1.15
2022-09-18T05:58:14.226Z,1.50
2022-09-18T06:00:41.758Z,0.65
2022-09-18T06:03:16.659Z,2.05
2022-09-18T06:05:44.305Z,1.30
2022-09-18T06:08:13.738Z,3.53
2022-09-18T06:10:41.169Z,2.17
2022-09-18T06:13:16.019Z,1.20
2022-09-18T06:15:50.461Z,1.98
2022-09-18T06:18:22.304Z,3.20
2022-09-18T06:20:58.074Z,1.95
2022-09-18T06:23:28.519Z,1.48
2022-09-18T06:26:05.731Z,1.50
2022-09-18T06:28:34.605Z,1.00
2022-09-18T06:31:04.365Z,0.90
2022-09-18T06:33:43.334Z,1.48
2022-09-18T06:36:14.289Z,1.17
2022-09-18T06:38:55.569Z,3.03
2022-09-18T06:41:24.016Z,2.08
2022-09-18T06:43:53.795Z,2.00
2022-09-18T06:46:40.273Z,2.05
2022-09-18T06:49:17.218Z,2.40
2022-09-18T06:51:46.214Z,2.20
2022-09-18T06:54:16.449Z,1.58
2022-09-18T06:56:43.768Z,2.50
2022-09-18T06:59:12.849Z,2.30
2022-09-18T07:01:40.911Z,2.25
2022-09-18T07:04:16.830Z,2.20
2022-09-18T07:06:46.172Z,2.20
2022-09-18T07:09:14.638Z,2.53
2022-09-18T07:12:07.978Z,1.92
2022-09-18T07:14:43.455Z,1.55
2022-09-18T07:17:17.650Z,2.33
2022-09-18T07:19:47.357Z,1.75
2022-09-18T07:22:16.896Z,3.73
2022-09-18T07:24:47.276Z,1.73
2022-09-18T07:27:14.611Z,1.38
2022-09-18T07:29:43.042Z,1.17
2022-09-18T07:32:13.910Z,3.33
2022-09-18T07:34:44.237Z,1.20
2022-09-18T07:37:14.323Z,4.97
2022-09-18T07:39:47.389Z,2.45
2022-09-18T07:42:33.029Z,2.25
2022-09-18T07:45:01.890Z,3.00
2022-09-18T07:47:30.299Z,4.40
2022-09-18T07:49:59.843Z,2.28
2022-09-18T07:52:27.092Z,1.58
2022-09-18T07:54:54.449Z,3.63
2022-09-18T07:57:31.799Z,5.97
2022-09-18T08:00:34.688Z,2.23
2022-09-18T08:03:10.083Z,1.95
2022-09-18T08:05:54.975Z,2.22
2022-09-18T08:08:22.625Z,2.90
2022-09-18T08:10:55.603Z,3.45
2022-09-18T08:13:40.521Z,4.60
2022-09-18T08:16:26.177Z,3.90
2022-09-18T08:19:12.868Z,3.10
2022-09-18T08:21:46.105Z,2.47
2022-09-18T08:24:17.513Z,2.08
2022-09-18T08:26:45.989Z,1.90
2022-09-18T08:29:18.990Z,2.92
2022-09-18T08:31:51.417Z,1.20
2022-09-18T08:34:18.753Z,2.33
2022-09-18T08:36:46.234Z,1.65
2022-09-18T08:39:19.055Z,1.13
2022-09-18T08:42:42.410Z,1.70
2022-09-18T08:45:19.120Z,2.35
2022-09-18T08:47:51.226Z,0.88
2022-09-18T08:50:29.909Z,3.35
2022-09-18T08:53:05.877Z,1.70
2022-09-18T08:55:51.976Z,2.75
2022-09-18T08:58:45.374Z,2.80
2022-09-18T09:01:16.314Z,0.90
2022-09-18T09:04:08.039Z,1.40
2022-09-18T09:06:51.539Z,1.40
2022-09-18T09:09:34.469Z,1.02
2022-09-18T09:12:23.478Z,1.65
2022-09-18T09:15:11.515Z,1.20
2022-09-18T09:17:39.925Z,1.88
2022-09-18T09:20:25.045Z,1.97
2022-09-18T09:23:03.182Z,2.28
2022-09-18T09:26:07.128Z,1.50
2022-09-18T09:28:53.782Z,2.17
2022-09-18T09:31:46.928Z,1.13
2022-09-18T09:34:42.365Z,1.20
2022-09-18T09:37:35.964Z,1.45
2022-09-18T09:40:08.448Z,2.90
2022-09-18T09:42:42.669Z,1.60
2022-09-18T09:45:24.931Z,1.13
2022-09-18T09:48:02.182Z,1.83
2022-09-18T09:50:34.065Z,2.10
2022-09-18T09:53:04.437Z,1.50
2022-09-18T09:56:10.526Z,1.00
2022-09-18T09:58:59.243Z,0.60
2022-09-18T10:01:49.058Z,1.47
2022-09-18T10:04:35.587Z,2.05
2022-09-18T10:07:30.724Z,1.13
2022-09-18T10:10:06.732Z,1.88
2022-09-18T10:12:43.515Z,2.28
2022-09-18T10:15:34.886Z,1.33
2022-09-18T10:18:05.885Z,2.10
2022-09-18T10:20:33.432Z,1.55
2022-09-18T10:23:25.738Z,1.65
2022-09-18T10:25:57.244Z,1.73
2022-09-18T10:28:26.595Z,2.67
2022-09-18T10:30:57.048Z,1.20
2022-09-18T10:33:54.087Z,1.52
2022-09-18T10:36:37.023Z,1.83
2022-09-18T10:39:31.242Z,0.75
2022-09-18T10:42:05.377Z,1.80
2022-09-18T10:44:38.068Z,2.78
2022-09-18T10:47:21.564Z,1.35
2022-09-18T10:50:06.945Z,1.02
2022-09-18T10:52:50.222Z,0.70
2022-09-18T10:55:26.385Z,1.40
2022-09-18T10:58:02.034Z,1.83
2022-09-18T11:00:30.987Z,1.65
2022-09-18T11:03:16.367Z,0.88
2022-09-18T11:05:58.275Z,1.92
2022-09-18T11:08:33.911Z,1.27
2022-09-18T11:11:07.636Z,2.45
2022-09-18T11:13:43.389Z,1.63
2022-09-18T11:16:12.531Z,1.58
2022-09-18T11:18:39.776Z,0.93
2022-09-18T11:21:08.408Z,0.80
2022-09-18T11:23:37.252Z,1.35
2022-09-18T11:26:19.398Z,0.90
2022-09-18T11:29:21.613Z,1.17
2022-09-18T11:31:59.911Z,1.13
2022-09-18T11:34:31.721Z,1.13
2022-09-18T11:37:01.303Z,1.33
2022-09-18T11:39:34.268Z,1.63
2022-09-18T11:42:08.613Z,1.88
2022-09-18T11:44:36.560Z,0.50
2022-09-18T11:47:29.418Z,1.97
2022-09-18T11:50:23.347Z,1.60
2022-09-18T11:52:54.099Z,2.08
2022-09-18T11:55:38.095Z,1.77
2022-09-18T11:58:12.665Z,0.80
2022-09-18T12:00:42.600Z,1.53
2022-09-18T12:03:21.971Z,0.90
2022-09-18T12:05:58.152Z,0.90
2022-09-18T12:08:46.440Z,1.73
2022-09-18T12:11:34.865Z,1.85
2022-09-18T12:14:12.724Z,1.80
2022-09-18T12:17:00.234Z,0.88
2022-09-18T12:19:41.481Z,3.05
2022-09-18T12:22:52.248Z,1.40
2022-09-18T12:25:22.057Z,4.60
2022-09-18T12:28:46.736Z,2.20
2022-09-18T12:31:44.813Z,0.80
2022-09-18T12:34:44.384Z,1.33
2022-09-18T12:37:17.218Z,1.45
2022-09-18T12:39:51.351Z,2.20
2022-09-18T12:42:24.517Z,2.07
2022-09-18T12:44:54.730Z,1.48
2022-09-18T12:47:24.979Z,1.30
2022-09-18T12:50:20.870Z,2.33
2022-09-18T12:53:08.706Z,4.20
2022-09-18T12:55:58.517Z,1.23
2022-09-18T12:58:50.482Z,1.05
2022-09-18T13:01:25.358Z,1.17
2022-09-18T13:03:52.735Z,1.05
2022-09-18T13:06:29.462Z,1.23
2022-09-18T13:08:58.465Z,1.60
2022-09-18T13:11:46.937Z,1.92
2022-09-18T13:14:42.403Z,1.33
2022-09-18T13:17:31.995Z,2.22
2022-09-18T13:20:02.494Z,1.05
2022-09-18T13:22:30.950Z,1.50
2022-09-18T13:24:58.096Z,1.02
2022-09-18T13:27:25.413Z,0.73
2022-09-18T13:29:52.527Z,1.38
2022-09-18T13:32:36.541Z,2.13
2022-09-18T13:35:13.498Z,1.53
2022-09-18T13:37:40.909Z,2.20
2022-09-18T13:40:33.386Z,1.98
2022-09-18T13:43:22.442Z,1.40
2022-09-18T13:45:49.668Z,0.82
2022-09-18T13:48:34.423Z,1.50
2022-09-18T13:51:06.498Z,1.58
2022-09-18T13:53:38.334Z,1.80
2022-09-18T13:56:07.159Z,1.25
2022-09-18T13:58:43.831Z,1.52
2022-09-18T14:01:11.127Z,1.67
2022-09-18T14:03:39.897Z,1.70
2022-09-18T14:06:35.314Z,1.48
2022-09-18T14:09:44.686Z,2.85
2022-09-18T14:12:15.874Z,3.08
2022-09-18T14:14:43.147Z,2.27
2022-09-18T14:17:14.524Z,1.92
2022-09-18T14:19:44.180Z,3.55
2022-09-18T14:22:24.849Z,1.65
2022-09-18T14:24:52.115Z,1.67
2022-09-18T14:27:41.322Z,1.87
2022-09-18T14:30:13.204Z,1.27
2022-09-18T14:32:42.081Z,1.38
2022-09-18T14:35:34.901Z,2.95
2022-09-18T14:38:02.236Z,2.60
2022-09-18T14:40:29.842Z,5.20
2022-09-18T14:42:57.156Z,4.35
2022-09-18T14:45:29.905Z,6.50
2022-09-18T14:47:57.766Z,5.10
2022-09-18T14:50:31.365Z,4.93
2022-09-18T14:53:00.561Z,5.83
2022-09-18T14:55:36.175Z,6.97
2022-09-18T14:58:06.302Z,6.07
2022-09-18T15:00:34.241Z,4.95
2022-09-18T15:03:24.674Z,3.90
2022-09-18T15:05:55.054Z,3.43
2022-09-18T15:08:26.507Z,4.85
2022-09-18T15:10:56.924Z,5.10
2022-09-18T15:13:24.225Z,4.05
2022-09-18T15:16:02.139Z,4.47
2022-09-18T15:18:30.352Z,4.13
2022-09-18T15:20:59.443Z,4.13
2022-09-18T15:23:31.092Z,4.10
2022-09-18T15:26:01.462Z,5.07
2022-09-18T15:28:30.783Z,5.78
2022-09-18T15:31:01.123Z,4.87
2022-09-18T15:33:28.430Z,6.35
2022-09-18T15:35:55.794Z,3.92
2022-09-18T15:38:26.138Z,6.30
2022-09-18T15:40:53.383Z,4.57
2022-09-18T15:43:47.033Z,5.47
2022-09-18T15:46:31.271Z,6.88
2022-09-18T15:49:03.285Z,7.60
2022-09-18T15:51:34.145Z,7.55
2022-09-18T15:54:10.543Z,8.60
2022-09-18T15:56:49.586Z,6.73
2022-09-18T15:59:31.112Z,4.38
2022-09-18T16:01:59.008Z,3.42
2022-09-18T16:04:32.504Z,2.00
2022-09-18T16:07:05.465Z,3.30
2022-09-18T16:09:43.216Z,2.37
2022-09-18T16:12:29.405Z,2.33
2022-09-18T16:14:56.587Z,2.40
2022-09-18T16:17:29.490Z,2.00
2022-09-18T16:19:57.472Z,1.98
2022-09-18T16:22:25.843Z,3.40
2022-09-18T16:24:53.284Z,2.65
2022-09-18T16:27:22.248Z,3.33
2022-09-18T16:29:49.526Z,3.00
2022-09-18T16:32:16.842Z,2.30
2022-09-18T16:34:46.730Z,6.27
2022-09-18T16:37:14.005Z,6.88
2022-09-18T16:39:41.152Z,8.48
2022-09-18T16:42:17.938Z,4.88
2022-09-18T16:44:45.891Z,6.18
2022-09-18T16:47:13.888Z,5.33
2022-09-18T16:49:44.789Z,2.40
2022-09-18T16:52:12.334Z,3.40
2022-09-18T16:54:39.603Z,3.72
2022-09-18T16:57:18.415Z,3.55
2022-09-18T16:59:45.948Z,5.83
2022-09-18T17:02:14.689Z,3.08
2022-09-18T17:04:41.935Z,3.72
2022-09-18T17:07:09.083Z,3.53
2022-09-18T17:09:36.295Z,2.22
2022-09-18T17:12:03.503Z,3.27
2022-09-18T17:14:30.774Z,3.20
2022-09-18T17:16:57.998Z,2.75
2022-09-18T17:19:25.430Z,2.72
2022-09-18T17:21:53.572Z,4.15
2022-09-18T17:24:26.193Z,10.37
2022-09-18T17:26:54.107Z,14.35
2022-09-18T17:29:21.352Z,16.10
2022-09-18T17:31:48.647Z,16.30
2022-09-18T17:34:16.652Z,12.15
2022-09-18T17:36:43.909Z,15.20
2022-09-18T17:39:11.899Z,8.35
2022-09-18T17:41:39.149Z,8.55
2022-09-18T17:44:06.414Z,7.63
2022-09-18T17:46:33.691Z,7.75
2022-09-18T17:49:01.108Z,7.20
2022-09-18T17:51:29.273Z,6.25
2022-09-18T17:54:02.968Z,10.20
2022-09-18T17:56:30.335Z,7.60
2022-09-18T17:58:59.970Z,7.80
2022-09-18T18:01:28.214Z,7.20
2022-09-18T18:03:55.560Z,6.95
2022-09-18T18:06:22.971Z,6.28
2022-09-18T18:08:50.527Z,7.35
2022-09-18T18:11:19.478Z,7.38
2022-09-18T18:13:47.030Z,8.07
2022-09-18T18:16:25.150Z,6.45
2022-09-18T18:18:55.596Z,8.82
2022-09-18T18:21:22.950Z,6.70
2022-09-18T18:23:57.486Z,5.45
2022-09-18T18:26:24.716Z,6.27
2022-09-18T18:28:52.101Z,5.55
2022-09-18T18:31:19.477Z,6.10
2022-09-18T18:33:46.816Z,3.67
2022-09-18T18:36:18.079Z,4.13
2022-09-18T18:38:46.613Z,5.60
2022-09-18T18:41:14.494Z,4.00
2022-09-18T18:43:41.827Z,4.75
2022-09-18T18:46:12.822Z,4.75
2022-09-18T18:48:40.676Z,3.28
2022-09-18T18:51:09.563Z,3.53
2022-09-18T18:53:36.793Z,3.63
2022-09-18T18:56:05.481Z,3.35
2022-09-18T18:58:32.926Z,3.92
2022-09-18T19:01:14.841Z,4.75
2022-09-18T19:03:52.953Z,3.00
2022-09-18T19:06:20.562Z,4.70
2022-09-18T19:08:47.852Z,4.80
2022-09-18T19:11:15.901Z,4.18
2022-09-18T19:13:44.666Z,6.38
2022-09-18T19:16:12.396Z,5.50
2022-09-18T19:18:39.669Z,6.57
2022-09-18T19:21:07.586Z,6.30
2022-09-18T19:23:35.486Z,5.90
2022-09-18T19:26:02.809Z,6.50
2022-09-18T19:28:30.370Z,6.47
2022-09-18T19:31:04.397Z,7.80
2022-09-18T19:33:33.183Z,8.30
2022-09-18T19:36:05.069Z,6.07
2022-09-18T19:38:33.387Z,11.70
2022-09-18T19:41:02.116Z,5.93
2022-09-18T19:43:33.532Z,4.93
2022-09-18T19:46:00.868Z,5.05
2022-09-18T19:48:28.273Z,4.32
2022-09-18T19:50:55.568Z,9.30
2022-09-18T19:53:22.914Z,7.70
2022-09-18T19:55:50.094Z,5.93
2022-09-18T19:58:17.391Z,6.35
2022-09-18T20:00:44.865Z,5.97
2022-09-18T20:03:12.274Z,2.75
2022-09-18T20:05:39.731Z,5.47
2022-09-18T20:08:07.162Z,6.00
2022-09-18T20:10:36.447Z,7.68
2022-09-18T20:13:03.980Z,7.55
2022-09-18T20:15:31.158Z,6.75
2022-09-18T20:17:58.442Z,7.87
2022-09-18T20:20:26.154Z,4.97
2022-09-18T20:22:54.429Z,5.05
2022-09-18T20:25:22.109Z,5.75
2022-09-18T20:27:49.292Z,5.68
2022-09-18T20:30:17.505Z,6.63
2022-09-18T20:32:44.732Z,5.85
2022-09-18T20:35:11.963Z,4.47
2022-09-18T20:37:39.171Z,5.03
2022-09-18T20:40:07.390Z,4.70
2022-09-18T20:42:34.654Z,6.23
2022-09-18T20:45:04.682Z,5.65
2022-09-18T20:47:35.006Z,5.38
2022-09-18T20:50:06.579Z,4.82
2022-09-18T20:52:36.310Z,4.57
2022-09-18T20:55:05.368Z,4.20
2022-09-18T20:57:33.036Z,4.82
2022-09-18T21:00:00.254Z,3.80
2022-09-18T21:02:27.739Z,4.68
2022-09-18T21:04:56.077Z,4.35
2022-09-18T21:07:24.575Z,4.37
2022-09-18T21:09:54.455Z,4.00
2022-09-18T21:12:23.743Z,3.53
2022-09-18T21:14:50.997Z,8.57
2022-09-18T21:17:18.362Z,5.40
2022-09-18T21:19:48.574Z,4.63
2022-09-18T21:22:17.668Z,4.32
2022-09-18T21:24:44.891Z,3.88
2022-09-18T21:27:12.285Z,5.25
2022-09-18T21:29:40.833Z,3.10
2022-09-18T21:32:08.782Z,3.93
2022-09-18T21:34:35.990Z,10.70
2022-09-18T21:37:04.996Z,5.63
2022-09-18T21:39:32.429Z,3.70
2022-09-18T21:42:00.904Z,6.88
2022-09-18T21:44:30.400Z,4.97
2022-09-18T21:47:02.051Z,4.40
2022-09-18T21:49:29.550Z,5.53
2022-09-18T21:51:58.621Z,2.67
2022-09-18T21:54:25.990Z,5.05
2022-09-18T21:56:53.373Z,3.87
2022-09-18T21:59:26.077Z,4.07
2022-09-18T22:01:54.838Z,5.47
2022-09-18T22:04:27.114Z,4.82
2022-09-18T22:06:55.677Z,6.10
2022-09-18T22:09:27.889Z,9.60
2022-09-18T22:11:55.343Z,5.57
2022-09-18T22:14:28.754Z,7.25
2022-09-18T22:16:56.503Z,4.30
2022-09-18T22:19:23.768Z,4.22
2022-09-18T22:21:51.177Z,3.87
2022-09-18T22:24:22.710Z,4.15
2022-09-18T22:26:51.977Z,6.72
2022-09-18T22:29:27.171Z,3.55
2022-09-18T22:31:54.578Z,4.63
2022-09-18T22:34:23.749Z,5.50
2022-09-18T22:36:51.116Z,2.88
2022-09-18T22:39:19.290Z,4.32
2022-09-18T22:41:46.650Z,4.63
2022-09-18T22:44:14.583Z,3.67
2022-09-18T22:46:43.148Z,3.47
2022-09-18T22:49:12.745Z,3.28
2022-09-18T22:51:40.223Z,4.05
2022-09-18T22:54:10.226Z,3.28
2022-09-18T22:56:41.759Z,3.00
2022-09-18T22:59:11.024Z,2.77
2022-09-18T23:01:42.601Z,4.10
2022-09-18T23:04:09.999Z,4.53
2022-09-18T23:06:37.320Z,3.70
2022-09-18T23:09:06.668Z,2.70
2022-09-18T23:11:34.099Z,5.87
2022-09-18T23:14:05.641Z,3.75
2022-09-18T23:16:34.836Z,2.78
2022-09-18T23:19:05.227Z,2.53
2022-09-18T23:21:33.836Z,4.13
2022-09-18T23:24:04.848Z,3.63
2022-09-18T23:26:35.197Z,3.05
2022-09-18T23:29:04.200Z,4.90
2022-09-18T23:31:33.084Z,3.92
2022-09-18T23:34:02.974Z,3.33
2022-09-18T23:36:31.987Z,2.80
2022-09-18T23:39:01.422Z,3.28
2022-09-18T23:41:34.407Z,3.60
2022-09-18T23:44:02.247Z,3.10
2022-09-18T23:46:29.606Z,2.85
2022-09-18T23:48:57.157Z,4.50
2022-09-18T23:51:31.897Z,2.33
2022-09-18T23:54:00.832Z,2.35
2022-09-18T23:56:29.257Z,2.38
2022-09-18T23:58:57.731Z,5.20
